WLF88S FOOL-FPST
Flight info
| Callsign | WLF88S |
|---|---|
| Flight time | 0h 50m |
| Altitude | 8000 |
| Route | LV DCT STM |
| Aircraft | AEST/L-SDFGRY/S |
Departure
| Time | 2026-05-05 14:26 |
|---|---|
| Airport | Libreville Leon M'ba International Airport (FOOL) |
Arrival
| Time | 2026-05-05 15:16 |
|---|---|
| Airport | São Tomé International Airport (FPST) |
| Time | Latitude | Longitude | Altitude | Speed | Heading |
|---|---|---|---|---|---|
| 2026-05-05 14:15 | 0.46114 | 9.40895 | 32 ft | 0 kts | 248° |
| 2026-05-05 14:23 | 0.46116 | 9.40887 | 32 ft | 4 kts | 322° |
| 2026-05-05 14:23 | 0.46171 | 9.40909 | 32 ft | 12 kts | 349° |
| 2026-05-05 14:23 | 0.46254 | 9.40873 | 32 ft | 12 kts | 7° |
| 2026-05-05 14:24 | 0.46303 | 9.40943 | 32 ft | 14 kts | 63° |
| 2026-05-05 14:24 | 0.46313 | 9.40963 | 31 ft | 0 kts | 63° |
| 2026-05-05 14:24 | 0.46324 | 9.40985 | 31 ft | 8 kts | 63° |
| 2026-05-05 14:24 | 0.46317 | 9.41012 | 31 ft | 0 kts | 151° |
| 2026-05-05 14:25 | 0.46300 | 9.41021 | 31 ft | 23 kts | 153° |
| 2026-05-05 14:25 | 0.45879 | 9.41221 | 31 ft | 98 kts | 153° |
| 2026-05-05 14:25 | 0.45222 | 9.41538 | 188 ft | 111 kts | 156° |
| 2026-05-05 14:25 | 0.44509 | 9.41880 | 465 ft | 119 kts | 159° |
| 2026-05-05 14:26 | 0.43700 | 9.42254 | 778 ft | 137 kts | 156° |
| 2026-05-05 14:26 | 0.42768 | 9.42721 | 977 ft | 164 kts | 154° |
| 2026-05-05 14:26 | 0.41681 | 9.43280 | 1131 ft | 182 kts | 155° |
| 2026-05-05 14:26 | 0.40522 | 9.43862 | 1328 ft | 190 kts | 159° |
| 2026-05-05 14:27 | 0.39231 | 9.44090 | 1585 ft | 191 kts | 187° |
| 2026-05-05 14:27 | 0.38030 | 9.43602 | 1877 ft | 186 kts | 218° |
| 2026-05-05 14:27 | 0.37296 | 9.42557 | 2122 ft | 188 kts | 249° |
| 2026-05-05 14:27 | 0.37209 | 9.41252 | 2344 ft | 193 kts | 279° |
| 2026-05-05 14:28 | 0.37806 | 9.40046 | 2581 ft | 198 kts | 310° |
| 2026-05-05 14:28 | 0.38924 | 9.39254 | 2828 ft | 200 kts | 332° |
| 2026-05-05 14:28 | 0.40184 | 9.38630 | 3079 ft | 202 kts | 333° |
| 2026-05-05 14:28 | 0.41448 | 9.38011 | 3333 ft | 204 kts | 333° |
| 2026-05-05 14:29 | 0.42724 | 9.37383 | 3579 ft | 204 kts | 334° |
| 2026-05-05 14:29 | 0.43957 | 9.36679 | 3824 ft | 205 kts | 321° |
| 2026-05-05 14:29 | 0.45026 | 9.35726 | 4080 ft | 207 kts | 317° |
| 2026-05-05 14:29 | 0.46070 | 9.34753 | 4332 ft | 205 kts | 317° |
| 2026-05-05 14:30 | 0.47108 | 9.33775 | 4595 ft | 206 kts | 317° |
| 2026-05-05 14:30 | 0.47962 | 9.32637 | 4834 ft | 205 kts | 294° |
| 2026-05-05 14:30 | 0.48392 | 9.31295 | 5074 ft | 203 kts | 279° |
| 2026-05-05 14:30 | 0.48447 | 9.29882 | 5277 ft | 205 kts | 268° |
| 2026-05-05 14:31 | 0.48418 | 9.28449 | 5487 ft | 206 kts | 268° |
| 2026-05-05 14:31 | 0.48395 | 9.27020 | 5694 ft | 206 kts | 269° |
| 2026-05-05 14:31 | 0.48413 | 9.25592 | 5899 ft | 206 kts | 271° |
| 2026-05-05 14:31 | 0.48459 | 9.24150 | 6102 ft | 208 kts | 272° |
| 2026-05-05 14:32 | 0.48520 | 9.22704 | 6289 ft | 207 kts | 273° |
| 2026-05-05 14:32 | 0.48591 | 9.21272 | 6477 ft | 207 kts | 273° |
| 2026-05-05 14:32 | 0.48663 | 9.19830 | 6660 ft | 209 kts | 274° |
| 2026-05-05 14:32 | 0.48729 | 9.18383 | 6845 ft | 208 kts | 273° |
| 2026-05-05 14:33 | 0.48754 | 9.16935 | 7019 ft | 209 kts | 267° |
| 2026-05-05 14:33 | 0.48554 | 9.15502 | 7224 ft | 208 kts | 259° |
| 2026-05-05 14:33 | 0.48275 | 9.14073 | 7366 ft | 212 kts | 259° |
| 2026-05-05 14:33 | 0.47989 | 9.12622 | 7502 ft | 214 kts | 259° |
| 2026-05-05 14:34 | 0.47702 | 9.11163 | 7651 ft | 215 kts | 259° |
| 2026-05-05 14:34 | 0.47420 | 9.09693 | 7793 ft | 216 kts | 262° |
| 2026-05-05 14:34 | 0.47331 | 9.08195 | 7925 ft | 216 kts | 270° |
| 2026-05-05 14:34 | 0.47311 | 9.06690 | 8036 ft | 219 kts | 271° |
| 2026-05-05 14:35 | 0.47306 | 9.05140 | 7959 ft | 228 kts | 271° |
| 2026-05-05 14:35 | 0.47312 | 9.03532 | 7878 ft | 234 kts | 271° |
| 2026-05-05 14:35 | 0.47318 | 9.01894 | 7826 ft | 237 kts | 271° |
| 2026-05-05 14:35 | 0.47319 | 9.00277 | 7857 ft | 235 kts | 271° |
| 2026-05-05 14:36 | 0.47313 | 8.98643 | 7863 ft | 235 kts | 270° |
| 2026-05-05 14:36 | 0.47294 | 8.97004 | 7859 ft | 236 kts | 270° |
| 2026-05-05 14:36 | 0.47262 | 8.95365 | 7857 ft | 237 kts | 269° |
| 2026-05-05 14:36 | 0.47099 | 8.93729 | 7855 ft | 237 kts | 261° |
| 2026-05-05 14:37 | 0.46814 | 8.92111 | 7862 ft | 236 kts | 259° |
| 2026-05-05 14:37 | 0.46503 | 8.90501 | 7860 ft | 236 kts | 259° |
| 2026-05-05 14:37 | 0.46194 | 8.88895 | 7852 ft | 235 kts | 259° |
| 2026-05-05 14:37 | 0.45904 | 8.87301 | 7853 ft | 233 kts | 261° |
| 2026-05-05 14:38 | 0.45678 | 8.85697 | 7859 ft | 233 kts | 263° |
| 2026-05-05 14:38 | 0.45513 | 8.84084 | 7860 ft | 234 kts | 266° |
| 2026-05-05 14:38 | 0.45407 | 8.82460 | 7863 ft | 235 kts | 268° |
| 2026-05-05 14:38 | 0.45357 | 8.80823 | 7864 ft | 236 kts | 270° |
| 2026-05-05 14:39 | 0.45356 | 8.79178 | 7864 ft | 236 kts | 271° |
| 2026-05-05 14:39 | 0.45390 | 8.77543 | 7857 ft | 235 kts | 272° |
| 2026-05-05 14:39 | 0.45445 | 8.75917 | 7862 ft | 234 kts | 273° |
| 2026-05-05 14:39 | 0.45510 | 8.74293 | 7857 ft | 234 kts | 274° |
| 2026-05-05 14:40 | 0.45581 | 8.72670 | 7857 ft | 233 kts | 274° |
| 2026-05-05 14:40 | 0.45642 | 8.71053 | 7859 ft | 232 kts | 273° |
| 2026-05-05 14:40 | 0.45688 | 8.69447 | 7861 ft | 231 kts | 272° |
| 2026-05-05 14:40 | 0.45712 | 8.67843 | 7858 ft | 231 kts | 271° |
| 2026-05-05 14:41 | 0.45707 | 8.66234 | 7860 ft | 231 kts | 270° |
| 2026-05-05 14:41 | 0.45678 | 8.64628 | 7859 ft | 231 kts | 269° |
| 2026-05-05 14:41 | 0.45624 | 8.63020 | 7861 ft | 231 kts | 268° |
| 2026-05-05 14:41 | 0.45548 | 8.61417 | 7867 ft | 231 kts | 268° |
| 2026-05-05 14:42 | 0.45449 | 8.59809 | 7859 ft | 232 kts | 267° |
| 2026-05-05 14:42 | 0.45336 | 8.58205 | 7861 ft | 232 kts | 266° |
| 2026-05-05 14:42 | 0.45212 | 8.56602 | 7864 ft | 231 kts | 266° |
| 2026-05-05 14:42 | 0.45085 | 8.55000 | 7863 ft | 231 kts | 266° |
| 2026-05-05 14:43 | 0.44960 | 8.53419 | 7863 ft | 231 kts | 266° |
| 2026-05-05 14:43 | 0.44839 | 8.51821 | 7866 ft | 231 kts | 266° |
| 2026-05-05 14:43 | 0.44727 | 8.50219 | 7865 ft | 231 kts | 266° |
| 2026-05-05 14:43 | 0.44623 | 8.48614 | 7870 ft | 232 kts | 267° |
| 2026-05-05 14:44 | 0.44531 | 8.47009 | 7872 ft | 231 kts | 268° |
| 2026-05-05 14:44 | 0.44454 | 8.45401 | 7873 ft | 232 kts | 268° |
| 2026-05-05 14:44 | 0.44391 | 8.43793 | 7870 ft | 231 kts | 269° |
| 2026-05-05 14:44 | 0.44339 | 8.42185 | 7871 ft | 232 kts | 269° |
| 2026-05-05 14:45 | 0.44298 | 8.40575 | 7869 ft | 232 kts | 269° |
| 2026-05-05 14:45 | 0.44268 | 8.38966 | 7871 ft | 232 kts | 270° |
| 2026-05-05 14:45 | 0.44246 | 8.37357 | 7869 ft | 232 kts | 270° |
| 2026-05-05 14:45 | 0.44229 | 8.35750 | 7870 ft | 231 kts | 270° |
| 2026-05-05 14:46 | 0.44217 | 8.34140 | 7868 ft | 232 kts | 270° |
| 2026-05-05 14:46 | 0.44201 | 8.32533 | 7869 ft | 231 kts | 270° |
| 2026-05-05 14:46 | 0.44182 | 8.30933 | 7871 ft | 230 kts | 270° |
| 2026-05-05 14:46 | 0.44161 | 8.29329 | 7871 ft | 231 kts | 270° |
| 2026-05-05 14:47 | 0.44131 | 8.27725 | 7871 ft | 231 kts | 270° |
| 2026-05-05 14:47 | 0.44096 | 8.26121 | 7873 ft | 231 kts | 270° |
| 2026-05-05 14:47 | 0.44071 | 8.25058 | 7869 ft | 231 kts | 269° |
| 2026-05-05 14:47 | 0.44026 | 8.23454 | 7873 ft | 232 kts | 269° |
| 2026-05-05 14:48 | 0.43974 | 8.21841 | 7866 ft | 232 kts | 269° |
| 2026-05-05 14:48 | 0.43918 | 8.20231 | 7870 ft | 231 kts | 269° |
| 2026-05-05 14:48 | 0.43856 | 8.18626 | 7867 ft | 231 kts | 268° |
| 2026-05-05 14:48 | 0.43789 | 8.17022 | 7861 ft | 231 kts | 268° |
| 2026-05-05 14:49 | 0.43717 | 8.15415 | 7867 ft | 231 kts | 268° |
| 2026-05-05 14:49 | 0.43644 | 8.13810 | 7869 ft | 231 kts | 268° |
| 2026-05-05 14:49 | 0.43569 | 8.12209 | 7872 ft | 231 kts | 268° |
| 2026-05-05 14:49 | 0.43491 | 8.10604 | 7871 ft | 231 kts | 268° |
| 2026-05-05 14:50 | 0.43414 | 8.08998 | 7867 ft | 231 kts | 268° |
| 2026-05-05 14:50 | 0.43338 | 8.07395 | 7870 ft | 231 kts | 268° |
| 2026-05-05 14:50 | 0.43263 | 8.05794 | 7865 ft | 231 kts | 268° |
| 2026-05-05 14:50 | 0.43188 | 8.04190 | 7867 ft | 231 kts | 268° |
| 2026-05-05 14:51 | 0.43116 | 8.02588 | 7871 ft | 231 kts | 268° |
| 2026-05-05 14:51 | 0.43045 | 8.00984 | 7875 ft | 231 kts | 268° |
| 2026-05-05 14:51 | 0.42978 | 7.99377 | 7866 ft | 232 kts | 268° |
| 2026-05-05 14:51 | 0.42911 | 7.97775 | 7859 ft | 231 kts | 269° |
| 2026-05-05 14:52 | 0.42847 | 7.96172 | 7869 ft | 231 kts | 269° |
| 2026-05-05 14:52 | 0.42790 | 7.94569 | 7864 ft | 231 kts | 269° |
| 2026-05-05 14:52 | 0.42734 | 7.92964 | 7869 ft | 231 kts | 269° |
| 2026-05-05 14:52 | 0.42681 | 7.91359 | 7863 ft | 231 kts | 269° |
| 2026-05-05 14:53 | 0.42632 | 7.89756 | 7865 ft | 231 kts | 269° |
| 2026-05-05 14:53 | 0.42587 | 7.88175 | 7866 ft | 231 kts | 269° |
| 2026-05-05 14:53 | 0.42542 | 7.86571 | 7867 ft | 231 kts | 269° |
| 2026-05-05 14:53 | 0.42500 | 7.84969 | 7868 ft | 231 kts | 269° |
| 2026-05-05 14:54 | 0.42458 | 7.83361 | 7873 ft | 231 kts | 269° |
| 2026-05-05 14:54 | 0.42412 | 7.81753 | 7861 ft | 231 kts | 268° |
| 2026-05-05 14:54 | 0.42323 | 7.80167 | 7918 ft | 229 kts | 267° |
| 2026-05-05 14:54 | 0.42200 | 7.78556 | 7820 ft | 234 kts | 266° |
| 2026-05-05 14:55 | 0.42053 | 7.76927 | 7723 ft | 236 kts | 265° |
| 2026-05-05 14:55 | 0.41892 | 7.75290 | 7625 ft | 238 kts | 264° |
| 2026-05-05 14:55 | 0.41720 | 7.73631 | 7496 ft | 241 kts | 264° |
| 2026-05-05 14:55 | 0.41532 | 7.71966 | 7387 ft | 241 kts | 264° |
| 2026-05-05 14:56 | 0.41343 | 7.70297 | 7286 ft | 242 kts | 264° |
| 2026-05-05 14:56 | 0.41163 | 7.68621 | 7185 ft | 243 kts | 264° |
| 2026-05-05 14:56 | 0.40998 | 7.66945 | 7084 ft | 243 kts | 265° |
| 2026-05-05 14:56 | 0.40852 | 7.65268 | 6967 ft | 243 kts | 265° |
| 2026-05-05 14:57 | 0.40730 | 7.63582 | 6840 ft | 244 kts | 266° |
| 2026-05-05 14:57 | 0.40636 | 7.61892 | 6687 ft | 244 kts | 268° |
| 2026-05-05 14:57 | 0.40572 | 7.60202 | 6563 ft | 242 kts | 269° |
| 2026-05-05 14:57 | 0.40539 | 7.58526 | 6444 ft | 242 kts | 269° |
| 2026-05-05 14:58 | 0.40526 | 7.56832 | 6324 ft | 244 kts | 270° |
| 2026-05-05 14:58 | 0.40532 | 7.55153 | 6198 ft | 241 kts | 270° |
| 2026-05-05 14:58 | 0.40553 | 7.53478 | 6072 ft | 241 kts | 271° |
| 2026-05-05 14:58 | 0.40580 | 7.51822 | 5947 ft | 242 kts | 271° |
| 2026-05-05 14:59 | 0.40609 | 7.50146 | 5827 ft | 241 kts | 271° |
| 2026-05-05 14:59 | 0.40634 | 7.48479 | 5712 ft | 239 kts | 270° |
| 2026-05-05 14:59 | 0.40645 | 7.46825 | 5597 ft | 238 kts | 270° |
| 2026-05-05 14:59 | 0.40641 | 7.45173 | 5486 ft | 238 kts | 269° |
| 2026-05-05 15:00 | 0.40613 | 7.43526 | 5372 ft | 236 kts | 268° |
| 2026-05-05 15:00 | 0.40579 | 7.42419 | 5295 ft | 236 kts | 267° |
| 2026-05-05 15:00 | 0.40486 | 7.40253 | 5147 ft | 236 kts | 266° |
| 2026-05-05 15:00 | 0.40400 | 7.38624 | 5045 ft | 235 kts | 266° |
| 2026-05-05 15:01 | 0.40306 | 7.36985 | 4872 ft | 238 kts | 265° |
| 2026-05-05 15:01 | 0.40196 | 7.35337 | 4712 ft | 238 kts | 265° |
| 2026-05-05 15:01 | 0.40090 | 7.33692 | 4574 ft | 237 kts | 265° |
| 2026-05-05 15:01 | 0.39988 | 7.32054 | 4437 ft | 236 kts | 265° |
| 2026-05-05 15:02 | 0.39895 | 7.30420 | 4293 ft | 235 kts | 265° |
| 2026-05-05 15:02 | 0.39796 | 7.28790 | 4145 ft | 235 kts | 265° |
| 2026-05-05 15:02 | 0.39714 | 7.27159 | 4024 ft | 235 kts | 265° |
| 2026-05-05 15:02 | 0.39650 | 7.25525 | 3912 ft | 235 kts | 266° |
| 2026-05-05 15:03 | 0.39587 | 7.23895 | 3784 ft | 235 kts | 266° |
| 2026-05-05 15:03 | 0.39524 | 7.22270 | 3670 ft | 234 kts | 266° |
| 2026-05-05 15:03 | 0.39495 | 7.20644 | 3555 ft | 234 kts | 267° |
| 2026-05-05 15:03 | 0.39489 | 7.19020 | 3431 ft | 234 kts | 267° |
| 2026-05-05 15:04 | 0.39472 | 7.17394 | 3309 ft | 234 kts | 266° |
| 2026-05-05 15:04 | 0.39448 | 7.15773 | 3189 ft | 233 kts | 266° |
| 2026-05-05 15:04 | 0.39425 | 7.14157 | 3091 ft | 233 kts | 265° |
| 2026-05-05 15:04 | 0.39375 | 7.12543 | 2979 ft | 232 kts | 265° |
| 2026-05-05 15:05 | 0.39218 | 7.09336 | 2794 ft | 229 kts | 264° |
| 2026-05-05 15:05 | 0.39133 | 7.07771 | 2827 ft | 224 kts | 264° |
| 2026-05-05 15:05 | 0.39044 | 7.06249 | 2865 ft | 220 kts | 264° |
| 2026-05-05 15:06 | 0.38966 | 7.04710 | 2899 ft | 219 kts | 264° |
| 2026-05-05 15:06 | 0.38890 | 7.03186 | 2898 ft | 221 kts | 265° |
| 2026-05-05 15:06 | 0.38826 | 7.01657 | 2829 ft | 224 kts | 265° |
| 2026-05-05 15:06 | 0.38791 | 7.00094 | 2796 ft | 225 kts | 266° |
| 2026-05-05 15:07 | 0.38756 | 6.98506 | 2759 ft | 226 kts | 266° |
| 2026-05-05 15:07 | 0.38728 | 6.96938 | 2686 ft | 225 kts | 266° |
| 2026-05-05 15:07 | 0.38706 | 6.95383 | 2588 ft | 229 kts | 265° |
| 2026-05-05 15:07 | 0.38670 | 6.93767 | 2416 ft | 231 kts | 265° |
| 2026-05-05 15:08 | 0.38603 | 6.92179 | 2264 ft | 232 kts | 264° |
| 2026-05-05 15:08 | 0.38523 | 6.90569 | 2132 ft | 232 kts | 264° |
| 2026-05-05 15:08 | 0.38445 | 6.88941 | 2002 ft | 232 kts | 265° |
| 2026-05-05 15:08 | 0.38383 | 6.87367 | 2014 ft | 226 kts | 265° |
| 2026-05-05 15:09 | 0.38328 | 6.85820 | 2052 ft | 222 kts | 266° |
| 2026-05-05 15:09 | 0.38599 | 6.84311 | 2050 ft | 222 kts | 290° |
| 2026-05-05 15:09 | 0.39320 | 6.82939 | 2044 ft | 224 kts | 297° |
| 2026-05-05 15:09 | 0.40091 | 6.81570 | 2055 ft | 227 kts | 298° |
| 2026-05-05 15:10 | 0.40876 | 6.80206 | 2047 ft | 227 kts | 298° |
| 2026-05-05 15:10 | 0.41579 | 6.78805 | 2063 ft | 225 kts | 288° |
| 2026-05-05 15:10 | 0.42072 | 6.77315 | 2064 ft | 226 kts | 285° |
| 2026-05-05 15:10 | 0.42544 | 6.75803 | 1955 ft | 230 kts | 285° |
| 2026-05-05 15:11 | 0.43016 | 6.74268 | 1846 ft | 234 kts | 285° |
| 2026-05-05 15:11 | 0.43491 | 6.72710 | 1715 ft | 234 kts | 285° |
| 2026-05-05 15:11 | 0.43961 | 6.71182 | 1594 ft | 228 kts | 285° |
| 2026-05-05 15:11 | 0.44437 | 6.69702 | 1426 ft | 214 kts | 285° |
| 2026-05-05 15:12 | 0.44867 | 6.68381 | 1211 ft | 191 kts | 285° |
| 2026-05-05 15:12 | 0.45260 | 6.67161 | 1028 ft | 177 kts | 285° |
| 2026-05-05 15:12 | 0.45584 | 6.66082 | 931 ft | 150 kts | 277° |
| 2026-05-05 15:12 | 0.45384 | 6.65185 | 955 ft | 122 kts | 231° |
| 2026-05-05 15:13 | 0.44719 | 6.64769 | 999 ft | 112 kts | 198° |
| 2026-05-05 15:13 | 0.43929 | 6.64471 | 1026 ft | 131 kts | 196° |
| 2026-05-05 15:13 | 0.43008 | 6.64528 | 1025 ft | 140 kts | 155° |
| 2026-05-05 15:13 | 0.42168 | 6.65045 | 998 ft | 142 kts | 147° |
| 2026-05-05 15:14 | 0.41376 | 6.65555 | 897 ft | 125 kts | 149° |
| 2026-05-05 15:14 | 0.40706 | 6.65978 | 786 ft | 105 kts | 146° |
| 2026-05-05 15:14 | 0.40115 | 6.66387 | 664 ft | 101 kts | 145° |
| 2026-05-05 15:14 | 0.39562 | 6.66775 | 594 ft | 94 kts | 140° |
| 2026-05-05 15:15 | 0.39073 | 6.67209 | 591 ft | 96 kts | 129° |
| 2026-05-05 15:15 | 0.38692 | 6.67759 | 516 ft | 99 kts | 118° |
| 2026-05-05 15:15 | 0.38491 | 6.68437 | 404 ft | 104 kts | 104° |
| 2026-05-05 15:15 | 0.38329 | 6.69150 | 324 ft | 105 kts | 107° |
| 2026-05-05 15:16 | 0.38151 | 6.69852 | 162 ft | 103 kts | 108° |
| 2026-05-05 15:16 | 0.37981 | 6.70532 | 39 ft | 95 kts | 110° |
| 2026-05-05 15:16 | 0.37845 | 6.71107 | 32 ft | 77 kts | 104° |
| 2026-05-05 15:16 | 0.37744 | 6.71511 | 31 ft | 32 kts | 104° |
| 2026-05-05 15:17 | 0.37719 | 6.71551 | 31 ft | 15 kts | 269° |
| 2026-05-05 15:17 | 0.37767 | 6.71408 | 31 ft | 23 kts | 283° |
| 2026-05-05 15:17 | 0.37727 | 6.71304 | 31 ft | 16 kts | 195° |
| 2026-05-05 15:17 | 0.37658 | 6.71288 | 31 ft | 9 kts | 193° |
| 2026-05-05 15:18 | 0.37605 | 6.71274 | 31 ft | 7 kts | 199° |
| 2026-05-05 15:18 | 0.37602 | 6.71279 | 31 ft | 7 kts | 342° |
| 2026-05-05 15:18 | 0.37645 | 6.71241 | 31 ft | 11 kts | 281° |
| 2026-05-05 15:18 | 0.37661 | 6.71162 | 31 ft | 12 kts | 283° |
| 2026-05-05 15:19 | 0.37670 | 6.71093 | 31 ft | 0 kts | 285° |